Time;durP1;ratioP1;P1;durP2;ratioP2;P2;SDS_P1;SDS_P2;PMS_P1;PMS_P2;Temp;Humidity;BMP_temperature;BMP_pressure;BME280_temperature;BME280_humidity;BME280_pressure;Samples;Min_cycle;Max_cycle;Signal;HPM_P1;HPM_P2
2022/08/30 00:01:04;;;;;;;7.28;1.20;;;16.90;99.90;;;;;;4976151;28;20041;-68
2022/08/30 00:03:44;;;;;;;4.65;1.13;;;16.90;99.90;;;;;;4976269;28;20121;-71
2022/08/30 00:06:11;;;;;;;3.95;1.55;;;16.80;99.90;;;;;;4977650;28;20042;-70
2022/08/30 00:08:39;;;;;;;5.57;1.65;;;16.80;99.90;;;;;;4974361;28;20045;-70
2022/08/30 00:11:08;;;;;;;2.17;1.08;;;16.80;99.90;;;;;;4977578;28;20053;-70
2022/08/30 00:13:35;;;;;;;3.72;1.30;;;16.80;99.90;;;;;;4977471;28;20129;-70
2022/08/30 00:16:01;;;;;;;3.75;1.08;;;16.80;99.90;;;;;;4974282;28;20073;-67
2022/08/30 00:18:27;;;;;;;4.30;1.10;;;16.80;99.90;;;;;;4975536;28;20515;-69
2022/08/30 00:20:54;;;;;;;5.70;1.40;;;16.70;99.90;;;;;;4975489;28;20073;-69
2022/08/30 00:23:20;;;;;;;3.72;1.05;;;16.70;99.90;;;;;;4973151;28;20034;-70
2022/08/30 00:25:46;;;;;;;2.50;0.88;;;16.70;99.90;;;;;;4982124;28;20035;-70
2022/08/30 00:28:12;;;;;;;4.50;1.15;;;16.70;99.90;;;;;;4976577;28;20042;-70
2022/08/30 00:30:38;;;;;;;3.95;1.42;;;16.80;99.90;;;;;;4981588;28;20109;-71
2022/08/30 00:33:05;;;;;;;2.55;1.00;;;16.70;99.90;;;;;;4980049;28;20052;-70
2022/08/30 00:35:30;;;;;;;3.22;1.05;;;16.70;99.90;;;;;;4980452;28;20035;-71
2022/08/30 00:37:56;;;;;;;2.38;0.90;;;16.70;99.90;;;;;;4978708;28;20084;-70
2022/08/30 00:40:22;;;;;;;3.08;0.98;;;16.70;99.90;;;;;;4979184;28;20043;-68
2022/08/30 00:42:48;;;;;;;4.32;1.10;;;16.60;99.90;;;;;;4977844;28;20031;-71
2022/08/30 00:45:23;;;;;;;7.60;1.20;;;16.60;99.90;;;;;;5011842;28;20038;-70
2022/08/30 00:47:49;;;;;;;6.40;1.50;;;16.60;99.90;;;;;;4979980;28;20042;-69
2022/08/30 00:50:17;;;;;;;2.95;1.17;;;16.50;99.90;;;;;;4980619;28;20030;-69
2022/08/30 00:52:46;;;;;;;5.97;1.20;;;16.50;99.90;;;;;;4979757;28;20027;-71
2022/08/30 00:55:14;;;;;;;4.33;1.20;;;16.50;99.90;;;;;;4987900;28;20038;-71
2022/08/30 00:57:43;;;;;;;6.30;1.40;;;16.50;99.90;;;;;;4989959;28;20045;-70
2022/08/30 01:00:10;;;;;;;2.67;1.30;;;16.50;99.90;;;;;;4983532;28;21017;-70
2022/08/30 01:02:35;;;;;;;4.63;1.25;;;16.50;99.90;;;;;;4980240;28;20035;-68
2022/08/30 01:05:04;;;;;;;2.72;1.20;;;16.50;99.90;;;;;;4981465;28;20043;-70
2022/08/30 01:07:29;;;;;;;4.07;1.42;;;16.50;99.90;;;;;;4989691;28;20086;-70
2022/08/30 01:09:55;;;;;;;2.08;1.10;;;16.50;99.90;;;;;;4984106;28;20516;-70
2022/08/30 01:12:22;;;;;;;7.30;1.85;;;16.50;99.90;;;;;;4985030;28;20039;-70
2022/08/30 01:14:48;;;;;;;6.50;1.52;;;16.50;99.90;;;;;;4985850;28;20046;-68
2022/08/30 01:17:15;;;;;;;3.33;1.30;;;16.40;99.90;;;;;;4984054;28;20030;-70
2022/08/30 01:19:47;;;;;;;3.55;1.20;;;16.40;99.90;;;;;;4984757;28;20042;-70
2022/08/30 01:22:19;;;;;;;3.47;1.33;;;16.40;99.90;;;;;;4982830;28;20058;-71
2022/08/30 01:24:46;;;;;;;2.72;1.08;;;16.40;99.90;;;;;;4989796;28;20179;-70
2022/08/30 01:27:17;;;;;;;7.45;1.30;;;16.40;99.90;;;;;;4989217;28;20031;-70
2022/08/30 01:29:43;;;;;;;3.75;1.20;;;16.40;99.90;;;;;;4978717;28;20110;-70
2022/08/30 01:32:17;;;;;;;2.67;1.10;;;16.40;99.90;;;;;;4983554;28;20704;-70
2022/08/30 01:34:47;;;;;;;2.33;1.48;;;16.50;99.90;;;;;;4977297;28;20118;-70
2022/08/30 01:37:16;;;;;;;4.20;1.67;;;16.40;99.90;;;;;;4979053;28;20042;-70
2022/08/30 01:39:45;;;;;;;3.20;1.67;;;16.50;99.90;;;;;;4982155;28;20041;-70
2022/08/30 01:42:11;;;;;;;3.45;1.58;;;16.50;99.90;;;;;;4978913;28;20584;-70
2022/08/30 01:44:37;;;;;;;4.03;2.25;;;16.40;99.90;;;;;;4976738;28;20035;-70
2022/08/30 01:47:03;;;;;;;3.03;1.75;;;16.40;99.90;;;;;;4979851;28;20026;-69
2022/08/30 01:49:29;;;;;;;9.80;1.90;;;16.40;99.90;;;;;;4976744;28;20039;-71
2022/08/30 01:51:55;;;;;;;3.45;1.70;;;16.40;99.90;;;;;;4979648;28;20065;-71
2022/08/30 01:54:21;;;;;;;4.75;1.85;;;16.40;99.90;;;;;;4975291;28;20062;-70
2022/08/30 01:56:46;;;;;;;4.30;1.73;;;16.40;99.90;;;;;;4984232;28;20573;-70
2022/08/30 01:59:13;;;;;;;5.32;1.65;;;16.40;99.90;;;;;;4976459;28;20049;-70
2022/08/30 02:01:39;;;;;;;5.78;1.73;;;16.40;99.90;;;;;;4977435;28;20482;-71
2022/08/30 02:04:07;;;;;;;3.15;1.60;;;16.40;99.90;;;;;;4977069;28;20807;-69
2022/08/30 02:06:33;;;;;;;2.72;1.70;;;16.50;99.90;;;;;;4975165;28;20514;-70
2022/08/30 02:08:59;;;;;;;5.22;1.77;;;16.50;99.90;;;;;;4977606;28;20026;-69
2022/08/30 02:11:25;;;;;;;4.82;2.10;;;16.50;99.90;;;;;;4982342;28;20049;-69
2022/08/30 02:13:51;;;;;;;4.13;2.15;;;16.50;99.90;;;;;;4987149;28;20038;-70
2022/08/30 02:16:21;;;;;;;6.45;1.73;;;16.50;99.90;;;;;;4976370;28;20034;-70
2022/08/30 02:18:47;;;;;;;4.90;2.03;;;16.50;99.90;;;;;;4979619;28;20117;-70
2022/08/30 02:21:14;;;;;;;4.90;2.50;;;16.50;99.90;;;;;;4981589;28;20125;-69
2022/08/30 02:23:40;;;;;;;4.30;1.85;;;16.60;99.90;;;;;;4982835;28;20039;-70
2022/08/30 02:26:07;;;;;;;3.45;1.70;;;16.50;99.90;;;;;;4989486;28;20074;-70
2022/08/30 02:28:33;;;;;;;4.68;1.80;;;16.60;99.90;;;;;;4977443;28;20023;-70
2022/08/30 02:30:59;;;;;;;6.35;1.70;;;16.50;99.90;;;;;;4990491;28;20088;-70
2022/08/30 02:33:25;;;;;;;4.10;2.00;;;16.50;99.90;;;;;;4988530;28;20110;-70
2022/08/30 02:35:51;;;;;;;4.03;2.10;;;16.50;99.90;;;;;;4988589;28;20078;-67
2022/08/30 02:38:16;;;;;;;4.72;1.98;;;16.50;99.90;;;;;;4984401;28;20062;-70
2022/08/30 02:40:43;;;;;;;2.90;1.70;;;16.50;99.90;;;;;;4978374;28;20034;-71
2022/08/30 02:43:10;;;;;;;3.78;2.20;;;16.40;99.90;;;;;;4976804;28;20448;-70
2022/08/30 02:45:35;;;;;;;6.75;2.15;;;16.40;99.90;;;;;;4973132;28;20068;-70
2022/08/30 02:48:01;;;;;;;4.22;2.20;;;16.40;99.90;;;;;;4979998;28;20034;-70
2022/08/30 02:50:27;;;;;;;6.32;2.00;;;16.40;99.90;;;;;;4978881;28;20019;-70
2022/08/30 02:52:53;;;;;;;7.82;2.40;;;16.40;99.90;;;;;;4978245;28;20060;-70
2022/08/30 02:55:19;;;;;;;3.92;2.20;;;16.30;99.90;;;;;;4974818;28;20030;-69
2022/08/30 02:57:45;;;;;;;5.93;2.30;;;16.30;99.90;;;;;;4976922;28;20590;-70
2022/08/30 03:00:14;;;;;;;4.32;2.40;;;16.30;99.90;;;;;;4974936;28;20038;-70
2022/08/30 03:02:40;;;;;;;4.45;2.53;;;16.20;99.90;;;;;;4975856;28;20054;-68
2022/08/30 03:05:07;;;;;;;5.40;2.45;;;16.20;99.90;;;;;;4978759;28;20145;-70
2022/08/30 03:07:33;;;;;;;5.72;2.20;;;16.10;99.90;;;;;;4983719;28;20550;-69
2022/08/30 03:09:59;;;;;;;4.25;2.17;;;16.10;99.90;;;;;;4985646;28;20057;-70
2022/08/30 03:12:25;;;;;;;6.15;2.00;;;16.10;99.90;;;;;;4985527;28;20037;-69
2022/08/30 03:14:51;;;;;;;5.15;2.83;;;16.10;99.90;;;;;;4976124;28;20070;-66
2022/08/30 03:17:17;;;;;;;4.18;2.70;;;16.00;99.90;;;;;;4978409;28;20053;-70
2022/08/30 03:19:43;;;;;;;4.97;2.00;;;16.00;99.90;;;;;;4976023;28;20031;-71
2022/08/30 03:22:10;;;;;;;7.63;2.65;;;16.00;99.90;;;;;;4977040;28;20063;-70
2022/08/30 03:24:35;;;;;;;3.70;2.42;;;16.00;99.90;;;;;;4976828;28;20034;-67
2022/08/30 03:27:01;;;;;;;3.70;2.42;;;16.00;99.90;;;;;;4980542;28;20084;-70
2022/08/30 03:29:28;;;;;;;7.82;2.97;;;15.90;99.90;;;;;;4975668;28;20039;-69
2022/08/30 03:31:55;;;;;;;4.80;2.30;;;15.90;99.90;;;;;;4987017;28;20038;-70
2022/08/30 03:34:22;;;;;;;6.57;3.13;;;15.90;99.90;;;;;;4980194;28;20097;-70
2022/08/30 03:36:48;;;;;;;5.30;2.42;;;15.90;99.90;;;;;;4982453;28;20031;-71
2022/08/30 03:39:14;;;;;;;7.22;2.92;;;15.90;99.90;;;;;;5016599;28;20101;-69
2022/08/30 03:41:39;;;;;;;5.18;2.40;;;15.90;99.90;;;;;;4976534;28;20138;-70
2022/08/30 03:44:05;;;;;;;5.13;2.92;;;15.90;99.90;;;;;;5007784;28;20387;-69
2022/08/30 03:46:30;;;;;;;4.60;2.38;;;15.80;99.90;;;;;;4975805;28;20491;-70
2022/08/30 03:48:56;;;;;;;4.72;2.55;;;15.80;99.90;;;;;;5008597;28;20046;-70
2022/08/30 03:51:23;;;;;;;4.30;2.47;;;15.80;99.90;;;;;;4971493;28;20046;-68
2022/08/30 03:53:49;;;;;;;8.00;3.00;;;15.80;99.90;;;;;;4976549;28;20070;-70
2022/08/30 03:56:15;;;;;;;4.75;2.75;;;15.80;99.90;;;;;;4975281;28;20101;-68
2022/08/30 03:58:41;;;;;;;6.97;3.22;;;15.80;99.90;;;;;;4975734;28;20085;-70
2022/08/30 04:01:06;;;;;;;5.60;2.70;;;15.80;99.90;;;;;;4975415;28;20070;-69
2022/08/30 04:03:32;;;;;;;6.28;2.75;;;15.80;99.90;;;;;;4973690;28;20554;-70
2022/08/30 04:05:59;;;;;;;5.50;2.90;;;15.80;99.90;;;;;;4976894;28;20038;-69
2022/08/30 04:08:26;;;;;;;5.18;2.55;;;15.70;99.90;;;;;;4973374;28;20035;-70
2022/08/30 04:10:52;;;;;;;8.60;2.88;;;15.80;99.90;;;;;;4982545;28;20038;-68
2022/08/30 04:13:19;;;;;;;7.30;3.10;;;15.70;99.90;;;;;;4984627;28;20495;-70
2022/08/30 04:15:44;;;;;;;6.28;3.28;;;15.70;99.90;;;;;;4985473;28;20034;-70
2022/08/30 04:18:10;;;;;;;5.57;2.75;;;15.70;99.90;;;;;;4981016;28;20053;-69
2022/08/30 04:20:36;;;;;;;4.82;2.85;;;15.70;99.90;;;;;;4978138;28;20413;-69
2022/08/30 04:23:05;;;;;;;8.43;3.10;;;15.70;99.90;;;;;;4975425;28;20384;-70
2022/08/30 04:25:35;;;;;;;7.28;3.38;;;15.60;99.90;;;;;;4977811;28;20034;-69
2022/08/30 04:28:03;;;;;;;5.38;3.00;;;15.60;99.90;;;;;;4974208;28;20143;-70
2022/08/30 04:30:29;;;;;;;5.82;3.00;;;15.60;99.90;;;;;;4977408;28;20034;-67
2022/08/30 04:32:54;;;;;;;4.85;3.38;;;15.60;99.90;;;;;;4977584;28;20042;-70
2022/08/30 04:35:20;;;;;;;6.97;3.55;;;15.60;99.90;;;;;;4976324;28;20030;-69
2022/08/30 04:37:46;;;;;;;5.65;3.30;;;15.60;99.90;;;;;;4980772;28;20031;-71
2022/08/30 04:40:12;;;;;;;10.15;3.05;;;15.60;99.90;;;;;;4980155;28;20695;-71
2022/08/30 04:42:39;;;;;;;4.45;2.72;;;15.60;99.90;;;;;;4981419;28;20030;-69
2022/08/30 04:45:08;;;;;;;7.05;2.80;;;15.60;99.90;;;;;;4983304;28;20038;-70
2022/08/30 04:47:34;;;;;;;8.45;3.40;;;15.50;99.90;;;;;;4983707;28;20026;-70
2022/08/30 04:49:59;;;;;;;9.43;3.08;;;15.60;99.90;;;;;;4986317;28;20034;-70
2022/08/30 04:52:25;;;;;;;5.93;3.10;;;15.50;99.90;;;;;;5021900;28;20042;-71
2022/08/30 04:54:57;;;;;;;5.07;2.97;;;15.50;99.90;;;;;;4989991;28;20042;-70
2022/08/30 04:57:25;;;;;;;7.60;3.03;;;15.50;99.90;;;;;;4990048;28;20041;-71
2022/08/30 04:59:51;;;;;;;4.55;2.70;;;15.50;99.90;;;;;;4980898;28;20047;-71
2022/08/30 05:02:17;;;;;;;5.88;3.40;;;15.50;99.90;;;;;;4978585;28;20526;-69
2022/08/30 05:05:38;;;;;;;6.93;3.22;;;15.40;99.90;;;;;;4973287;28;20047;-70
2022/08/30 05:07:29;;;;;;;7.40;3.53;;;15.40;99.90;;;;;;4976995;28;20593;-70
2022/08/30 05:09:55;;;;;;;7.47;4.10;;;15.50;99.90;;;;;;4971629;28;20050;-70
2022/08/30 05:12:22;;;;;;;5.40;3.10;;;15.40;99.90;;;;;;4972490;28;20402;-71
2022/08/30 05:14:48;;;;;;;4.05;2.80;;;15.40;99.90;;;;;;4980925;28;20450;-69
2022/08/30 05:17:13;;;;;;;5.13;2.85;;;15.40;99.90;;;;;;4983448;28;20034;-71
2022/08/30 05:19:39;;;;;;;7.53;3.20;;;15.40;99.90;;;;;;4980829;28;20049;-70
2022/08/30 05:22:04;;;;;;;9.35;3.75;;;15.40;99.90;;;;;;4979385;28;20125;-70
2022/08/30 05:24:30;;;;;;;6.38;3.38;;;15.40;99.90;;;;;;4984817;28;20048;-69
2022/08/30 05:26:57;;;;;;;5.38;3.13;;;15.40;99.90;;;;;;4983573;28;20030;-71
2022/08/30 05:29:23;;;;;;;6.20;3.35;;;15.40;99.90;;;;;;4985654;28;20357;-68
2022/08/30 05:31:49;;;;;;;8.38;3.55;;;15.40;99.90;;;;;;4983398;28;20117;-70
2022/08/30 05:34:15;;;;;;;7.25;2.67;;;15.40;99.90;;;;;;4979432;28;20508;-71
2022/08/30 05:36:41;;;;;;;4.65;2.88;;;15.40;99.90;;;;;;4985023;28;20049;-71
2022/08/30 05:39:08;;;;;;;5.40;3.10;;;15.40;99.90;;;;;;4985749;28;20054;-70
2022/08/30 05:41:34;;;;;;;7.10;3.60;;;15.40;99.90;;;;;;5017757;28;20536;-69
2022/08/30 05:44:01;;;;;;;12.77;3.33;;;15.50;99.90;;;;;;4988185;28;20121;-69
2022/08/30 05:46:31;;;;;;;7.88;3.67;;;15.50;99.90;;;;;;4994703;28;20042;-69
2022/08/30 05:48:58;;;;;;;8.15;3.15;;;15.60;99.90;;;;;;4991206;28;20034;-70
2022/08/30 05:51:27;;;;;;;4.00;2.53;;;15.60;99.90;;;;;;4993676;28;20105;-68
2022/08/30 05:53:53;;;;;;;4.60;2.63;;;15.60;99.90;;;;;;4991307;28;20125;-70
2022/08/30 05:56:22;;;;;;;6.68;2.85;;;15.70;99.90;;;;;;4990183;28;20053;-70
2022/08/30 05:58:48;;;;;;;6.55;3.03;;;15.80;99.90;;;;;;4985987;28;20053;-71
2022/08/30 06:01:32;;;;;;;7.78;2.88;;;15.90;99.90;;;;;;4985693;28;20034;-70
2022/08/30 06:03:59;;;;;;;7.45;2.83;;;16.00;99.90;;;;;;4987160;28;20066;-71
2022/08/30 06:06:26;;;;;;;6.65;2.38;;;16.10;99.90;;;;;;4989126;28;20045;-71
2022/08/30 06:08:52;;;;;;;3.83;2.10;;;16.20;99.90;;;;;;4970191;28;20088;-69
2022/08/30 06:11:20;;;;;;;5.20;2.28;;;16.30;99.90;;;;;;4985989;28;20030;-71
2022/08/30 06:13:46;;;;;;;6.10;2.03;;;16.70;99.90;;;;;;4984353;28;20057;-71
2022/08/30 06:16:14;;;;;;;4.40;2.35;;;16.90;99.90;;;;;;4984136;28;20052;-71
2022/08/30 06:18:40;;;;;;;5.28;2.15;;;17.10;99.90;;;;;;4984410;28;20462;-71
2022/08/30 06:21:06;;;;;;;3.78;1.88;;;17.10;99.90;;;;;;4983177;28;20038;-71
2022/08/30 06:23:32;;;;;;;3.83;2.10;;;17.20;99.90;;;;;;4983958;28;20117;-69
2022/08/30 06:26:05;;;;;;;6.13;2.33;;;17.40;99.90;;;;;;4986242;28;20026;-71
2022/08/30 06:28:31;;;;;;;2.97;1.85;;;17.50;99.90;;;;;;4984151;28;20160;-70
2022/08/30 06:30:57;;;;;;;4.53;1.75;;;17.60;99.90;;;;;;4984593;28;20077;-71
2022/08/30 06:33:23;;;;;;;3.53;1.35;;;17.80;99.90;;;;;;4982756;28;20038;-71
2022/08/30 06:35:48;;;;;;;2.13;1.33;;;18.00;99.90;;;;;;4983288;28;20027;-70
2022/08/30 06:38:14;;;;;;;2.60;1.40;;;18.60;99.90;;;;;;4983258;28;20046;-70
2022/08/30 06:40:40;;;;;;;2.85;0.93;;;19.30;99.90;;;;;;4982215;28;20034;-70
2022/08/30 06:43:05;;;;;;;3.30;1.23;;;20.10;99.90;;;;;;4984789;28;20057;-71
2022/08/30 06:45:33;;;;;;;2.72;0.95;;;20.80;99.90;;;;;;4982775;28;20503;-71
2022/08/30 06:47:58;;;;;;;1.35;0.90;;;21.70;99.90;;;;;;4981447;28;20665;-71
2022/08/30 06:50:24;;;;;;;2.83;1.13;;;22.40;98.80;;;;;;4984734;28;20034;-68
2022/08/30 06:52:50;;;;;;;3.17;0.88;;;22.90;98.20;;;;;;4983142;28;20034;-70
2022/08/30 06:55:17;;;;;;;1.38;0.68;;;22.30;97.70;;;;;;4983911;28;20062;-70
2022/08/30 06:57:44;;;;;;;1.67;0.40;;;21.90;97.90;;;;;;5014443;28;20047;-71
2022/08/30 07:00:14;;;;;;;1.38;0.60;;;21.20;98.70;;;;;;4982230;28;20034;-70
2022/08/30 07:02:40;;;;;;;7.28;0.77;;;20.80;99.70;;;;;;4982192;28;20041;-69
2022/08/30 07:05:07;;;;;;;2.80;0.70;;;20.50;99.90;;;;;;4985025;28;20061;-71
2022/08/30 07:07:33;;;;;;;13.35;0.93;;;20.20;99.90;;;;;;4980464;28;20068;-71
2022/08/30 07:10:02;;;;;;;2.35;0.65;;;20.00;99.90;;;;;;4985427;28;20038;-70
2022/08/30 07:12:29;;;;;;;1.97;0.80;;;19.90;99.90;;;;;;4982525;28;20041;-71
2022/08/30 07:14:55;;;;;;;3.60;0.70;;;19.80;99.90;;;;;;4986033;28;20091;-69
2022/08/30 07:20:05;;;;;;;1.63;0.60;;;19.70;99.90;;;;;;4984556;28;20426;-69
2022/08/30 07:22:32;;;;;;;2.20;0.60;;;19.60;99.90;;;;;;4991210;28;20037;-71
2022/08/30 07:24:58;;;;;;;5.07;0.80;;;19.60;99.90;;;;;;5030911;28;20053;-72
2022/08/30 07:27:24;;;;;;;3.20;0.60;;;19.50;99.90;;;;;;4988554;28;20169;-71
2022/08/30 07:29:49;;;;;;;4.18;0.68;;;19.50;99.90;;;;;;4983892;28;20487;-70
2022/08/30 07:32:15;;;;;;;5.13;0.60;;;19.50;99.90;;;;;;4990024;28;20069;-70
2022/08/30 07:34:40;;;;;;;3.53;0.70;;;19.60;99.90;;;;;;4988986;28;20023;-69
2022/08/30 07:37:06;;;;;;;3.92;0.77;;;19.70;99.90;;;;;;4986011;28;20046;-70
2022/08/30 07:39:32;;;;;;;3.03;0.38;;;19.70;99.90;;;;;;4986677;28;20089;-71
2022/08/30 07:41:58;;;;;;;3.55;0.60;;;19.60;99.90;;;;;;4983819;28;20076;-70
2022/08/30 07:44:23;;;;;;;2.05;0.73;;;19.70;99.90;;;;;;4981624;28;20038;-71
2022/08/30 07:46:49;;;;;;;3.30;0.50;;;19.80;99.60;;;;;;4984062;28;20042;-71
2022/08/30 07:49:15;;;;;;;1.23;0.30;;;19.80;99.80;;;;;;4983440;28;20069;-70
2022/08/30 07:51:41;;;;;;;4.78;0.70;;;19.80;99.70;;;;;;4984958;28;20800;-69
2022/08/30 07:54:07;;;;;;;1.08;0.43;;;19.90;99.70;;;;;;4981805;28;20541;-70
2022/08/30 07:56:32;;;;;;;0.95;0.25;;;19.90;98.40;;;;;;4982947;28;20557;-71
2022/08/30 07:58:58;;;;;;;2.88;0.30;;;20.00;98.30;;;;;;4982564;28;20104;-71
2022/08/30 08:01:24;;;;;;;11.48;0.63;;;20.10;98.30;;;;;;4984426;28;20041;-71
2022/08/30 08:03:50;;;;;;;1.95;0.60;;;20.20;97.40;;;;;;4982833;28;20120;-70
2022/08/30 08:06:18;;;;;;;4.32;0.20;;;20.20;97.60;;;;;;4984364;28;20049;-71
2022/08/30 08:08:44;;;;;;;0.93;0.22;;;20.20;97.80;;;;;;4982091;28;20094;-71
2022/08/30 08:11:23;;;;;;;0.47;0.20;;;20.30;97.80;;;;;;4985788;28;20483;-70
2022/08/30 08:13:50;;;;;;;2.72;0.40;;;20.40;97.20;;;;;;4981301;28;20495;-71
2022/08/30 08:16:16;;;;;;;1.15;0.30;;;20.50;97.50;;;;;;4983296;28;20045;-71
2022/08/30 08:18:41;;;;;;;2.40;0.43;;;20.50;97.70;;;;;;4982090;28;20038;-71
2022/08/30 08:21:07;;;;;;;0.93;0.38;;;20.60;97.30;;;;;;4983298;28;20388;-71
2022/08/30 08:23:33;;;;;;;1.60;0.28;;;20.60;97.00;;;;;;4981365;28;20042;-70
2022/08/30 08:25:58;;;;;;;3.50;0.45;;;20.70;96.50;;;;;;5015637;28;20042;-70
2022/08/30 08:28:24;;;;;;;1.35;0.20;;;20.80;95.40;;;;;;4985277;28;20833;-70
2022/08/30 08:30:50;;;;;;;5.45;0.40;;;20.70;95.10;;;;;;4984275;28;20038;-69
2022/08/30 08:33:17;;;;;;;0.70;0.20;;;20.70;95.70;;;;;;4981349;28;20042;-71
2022/08/30 08:35:42;;;;;;;0.65;0.20;;;20.80;95.80;;;;;;4982021;28;20495;-70
2022/08/30 08:38:08;;;;;;;1.67;0.20;;;20.90;95.10;;;;;;4983538;28;20041;-72
2022/08/30 08:40:49;;;;;;;1.40;0.32;;;21.00;94.70;;;;;;4985794;28;20109;-71
2022/08/30 08:43:19;;;;;;;4.10;0.30;;;21.00;95.50;;;;;;4981268;28;20604;-71
2022/08/30 08:46:14;;;;;;;1.02;0.40;;;21.10;95.20;;;;;;4981938;28;20022;-71
2022/08/30 08:48:48;;;;;;;1.67;0.35;;;21.20;94.70;;;;;;4985036;28;20042;-70
2022/08/30 08:54:13;;;;;;;1.85;0.38;;;21.40;94.50;;;;;;4983281;28;20050;-71
2022/08/30 08:56:39;;;;;;;1.88;0.38;;;21.50;94.50;;;;;;4982848;28;20026;-72
2022/08/30 08:59:07;;;;;;;2.22;0.20;;;21.50;94.50;;;;;;4983972;28;20054;-70
2022/08/30 09:01:33;;;;;;;1.35;0.28;;;21.50;94.20;;;;;;4983751;28;20550;-71
2022/08/30 09:04:04;;;;;;;3.22;0.35;;;21.60;94.00;;;;;;4988295;28;20049;-69
2022/08/30 09:06:41;;;;;;;0.95;0.30;;;21.50;93.50;;;;;;4987935;28;20101;-71
2022/08/30 09:09:07;;;;;;;1.83;0.20;;;21.60;93.50;;;;;;4982010;28;20050;-70
2022/08/30 09:11:35;;;;;;;1.27;0.30;;;21.70;93.20;;;;;;4986573;28;20460;-70
2022/08/30 09:14:02;;;;;;;0.93;0.20;;;21.70;92.80;;;;;;4983406;28;20030;-71
2022/08/30 09:16:46;;;;;;;1.00;0.10;;;21.80;93.20;;;;;;4984183;28;20030;-71
2022/08/30 09:19:27;;;;;;;2.22;0.82;;;21.90;92.20;;;;;;4985132;28;20053;-71
2022/08/30 09:21:58;;;;;;;1.35;0.20;;;22.00;91.60;;;;;;4982581;28;20132;-69
2022/08/30 09:24:24;;;;;;;7.68;0.20;;;22.10;91.90;;;;;;5010278;28;20035;-70
2022/08/30 09:26:49;;;;;;;0.98;0.30;;;22.10;91.50;;;;;;4983591;28;20038;-68
2022/08/30 09:29:17;;;;;;;1.25;0.50;;;22.10;91.90;;;;;;4986479;28;20053;-69
2022/08/30 09:31:52;;;;;;;1.30;0.25;;;22.20;91.30;;;;;;4984022;28;20030;-69
2022/08/30 09:34:21;;;;;;;6.80;0.85;;;22.20;91.30;;;;;;4986033;28;20433;-69
2022/08/30 09:36:50;;;;;;;3.65;0.20;;;22.20;90.60;;;;;;4985868;28;20034;-69
2022/08/30 09:39:16;;;;;;;6.63;0.57;;;22.20;90.50;;;;;;4984128;28;20080;-70
2022/08/30 09:41:45;;;;;;;3.60;0.40;;;22.20;90.50;;;;;;4983561;28;20510;-70
2022/08/30 09:44:20;;;;;;;0.60;0.20;;;22.40;90.50;;;;;;4984576;28;20038;-71
2022/08/30 09:46:57;;;;;;;1.95;0.20;;;22.40;90.40;;;;;;4981843;28;20092;-70
2022/08/30 09:49:33;;;;;;;3.80;0.65;;;22.40;90.70;;;;;;4985250;28;20089;-70
2022/08/30 09:52:25;;;;;;;0.73;0.25;;;22.60;89.10;;;;;;4986357;28;20117;-69
2022/08/30 09:55:29;;;;;;;2.92;0.47;;;22.70;90.20;;;;;;4984138;28;20574;-70
2022/08/30 09:58:00;;;;;;;1.75;0.57;;;22.70;88.80;;;;;;4947339;28;20078;-69
2022/08/30 10:00:31;;;;;;;0.65;0.30;;;22.80;88.70;;;;;;4986559;28;20035;-69
2022/08/30 10:03:19;;;;;;;0.77;0.20;;;22.80;89.20;;;;;;4983836;28;20034;-70
2022/08/30 10:06:02;;;;;;;0.57;0.30;;;23.00;87.40;;;;;;4987124;28;20042;-69
2022/08/30 10:08:55;;;;;;;1.88;0.45;;;23.10;87.90;;;;;;4979025;28;20031;-70
2022/08/30 10:11:26;;;;;;;0.70;0.30;;;23.10;88.80;;;;;;4984463;28;20034;-68
2022/08/30 10:14:14;;;;;;;4.28;0.32;;;23.10;89.90;;;;;;4983449;28;20030;-69
2022/08/30 10:17:01;;;;;;;0.65;0.30;;;23.10;89.20;;;;;;4983538;28;20042;-70
2022/08/30 10:20:02;;;;;;;0.80;0.30;;;23.10;86.70;;;;;;4987231;28;20050;-70
2022/08/30 10:22:34;;;;;;;1.42;0.38;;;23.00;88.10;;;;;;4974742;28;20366;-71
2022/08/30 10:25:15;;;;;;;1.48;0.50;;;23.00;87.20;;;;;;4987111;28;20076;-68
2022/08/30 10:27:53;;;;;;;2.50;0.70;;;23.10;86.70;;;;;;4985537;28;20038;-69
2022/08/30 10:30:18;;;;;;;1.15;0.30;;;23.10;87.00;;;;;;4985798;28;20096;-68
2022/08/30 10:32:48;;;;;;;3.20;0.38;;;23.10;86.60;;;;;;4982961;28;20050;-69
2022/08/30 10:35:23;;;;;;;2.03;0.52;;;23.10;86.40;;;;;;4987157;28;20031;-69
2022/08/30 10:37:58;;;;;;;1.58;0.30;;;23.20;86.00;;;;;;4984530;28;20065;-67
2022/08/30 10:43:30;;;;;;;2.38;1.02;;;23.30;86.00;;;;;;4986289;28;20041;-67
2022/08/30 10:46:01;;;;;;;1.10;0.20;;;23.30;86.30;;;;;;4982495;28;20038;-69
2022/08/30 10:48:39;;;;;;;0.68;0.40;;;23.20;85.90;;;;;;4982385;28;20049;-69
2022/08/30 10:51:38;;;;;;;2.55;0.65;;;23.20;87.10;;;;;;4983093;28;20060;-67
2022/08/30 10:54:17;;;;;;;2.05;0.35;;;23.20;87.30;;;;;;4979305;28;20041;-69
2022/08/30 10:56:46;;;;;;;4.60;0.50;;;23.20;87.50;;;;;;5015752;28;20034;-72
2022/08/30 10:59:15;;;;;;;0.88;0.30;;;23.20;87.70;;;;;;4984866;28;20046;-71
2022/08/30 11:02:03;;;;;;;5.53;0.32;;;23.20;87.10;;;;;;4981548;28;20084;-70
2022/08/30 11:05:00;;;;;;;1.10;0.30;;;23.20;86.70;;;;;;4978074;28;20035;-70
2022/08/30 11:07:37;;;;;;;2.50;0.60;;;23.40;87.30;;;;;;4984327;28;20046;-70
2022/08/30 11:10:05;;;;;;;2.97;0.30;;;23.30;87.20;;;;;;4982366;28;20403;-69
2022/08/30 11:12:54;;;;;;;2.70;0.45;;;23.20;87.80;;;;;;4986018;28;20050;-68
2022/08/30 11:15:28;;;;;;;1.45;0.35;;;23.20;87.50;;;;;;4986228;28;20560;-69
2022/08/30 11:17:59;;;;;;;2.60;0.40;;;23.20;87.00;;;;;;4981946;28;20088;-70
2022/08/30 11:20:40;;;;;;;1.27;0.43;;;23.20;87.50;;;;;;4982581;28;20030;-69
2022/08/30 11:23:17;;;;;;;2.20;0.30;;;23.20;87.60;;;;;;5015548;28;20076;-70
2022/08/30 11:25:50;;;;;;;2.40;0.80;;;23.20;87.50;;;;;;4985541;28;20038;-71
2022/08/30 11:28:34;;;;;;;1.45;0.50;;;23.20;87.30;;;;;;4984030;28;20042;-71
2022/08/30 11:31:10;;;;;;;2.75;0.55;;;23.20;87.80;;;;;;4983537;28;20038;-69
2022/08/30 11:33:39;;;;;;;4.65;0.98;;;23.20;87.40;;;;;;4983796;28;20491;-70
2022/08/30 11:36:05;;;;;;;3.45;0.80;;;23.10;87.90;;;;;;4984138;28;20052;-70
2022/08/30 11:38:31;;;;;;;1.00;0.50;;;23.20;88.30;;;;;;4983344;28;20038;-71
2022/08/30 11:40:57;;;;;;;1.27;0.40;;;23.20;87.60;;;;;;4986485;28;20050;-69
2022/08/30 11:43:35;;;;;;;1.40;0.45;;;23.20;87.60;;;;;;4983852;28;20496;-71
2022/08/30 11:46:22;;;;;;;1.25;0.50;;;23.20;88.00;;;;;;4980614;28;20089;-69
2022/08/30 11:49:00;;;;;;;4.25;0.40;;;23.20;87.90;;;;;;4984205;28;20398;-69
2022/08/30 11:51:28;;;;;;;7.40;0.70;;;23.20;87.20;;;;;;5016554;28;20046;-70
2022/08/30 11:54:27;;;;;;;2.88;0.30;;;23.20;87.00;;;;;;4980065;28;20092;-70
2022/08/30 11:57:15;;;;;;;1.55;0.30;;;23.20;86.40;;;;;;4978959;28;20041;-70
2022/08/30 12:00:07;;;;;;;2.28;0.47;;;23.20;86.60;;;;;;4981761;28;20145;-69
2022/08/30 12:02:47;;;;;;;0.68;0.40;;;23.20;85.20;;;;;;4983309;28;20042;-70
2022/08/30 12:05:34;;;;;;;0.57;0.25;;;23.10;86.30;;;;;;4985184;28;20048;-71
2022/08/30 12:08:01;;;;;;;1.20;0.30;;;23.10;86.50;;;;;;4980838;28;20045;-70
2022/08/30 12:10:39;;;;;;;4.75;0.47;;;23.00;86.30;;;;;;4981018;28;20450;-70
2022/08/30 12:13:05;;;;;;;1.52;0.30;;;23.00;86.50;;;;;;4983567;28;20503;-70
2022/08/30 12:15:52;;;;;;;1.52;0.30;;;23.00;86.60;;;;;;4985161;28;20034;-68
2022/08/30 12:18:26;;;;;;;1.85;0.38;;;23.10;87.20;;;;;;4983992;28;20039;-70
2022/08/30 12:20:52;;;;;;;1.90;0.30;;;23.20;85.90;;;;;;4979151;28;20035;-68
2022/08/30 12:23:31;;;;;;;0.52;0.50;;;23.20;85.10;;;;;;4983882;28;20072;-69
2022/08/30 12:26:16;;;;;;;0.50;0.30;;;23.30;84.80;;;;;;4981703;28;20388;-69
2022/08/30 12:28:44;;;;;;;1.95;0.35;;;23.20;85.80;;;;;;4982644;28;20045;-71
2022/08/30 12:31:13;;;;;;;2.80;0.22;;;23.20;85.50;;;;;;4982508;28;20045;-70
2022/08/30 12:33:44;;;;;;;1.60;0.22;;;23.20;84.90;;;;;;4984348;28;20407;-70
2022/08/30 12:36:54;;;;;;;3.03;0.63;;;23.20;84.70;;;;;;4986986;28;20030;-70
2022/08/30 12:39:24;;;;;;;0.50;0.30;;;23.20;84.60;;;;;;4986307;28;20042;-68
2022/08/30 12:41:50;;;;;;;3.28;0.73;;;23.20;84.10;;;;;;4986223;28;20060;-70
2022/08/30 12:44:26;;;;;;;0.85;0.40;;;23.20;84.40;;;;;;4983179;28;20031;-71
2022/08/30 12:46:58;;;;;;;6.22;0.60;;;23.20;84.10;;;;;;4967272;28;20049;-69
2022/08/30 12:49:27;;;;;;;1.25;0.40;;;23.10;84.70;;;;;;4967035;28;20035;-70
2022/08/30 12:51:54;;;;;;;1.00;0.60;;;23.10;83.30;;;;;;4966546;28;20415;-70
2022/08/30 12:54:26;;;;;;;1.48;0.38;;;23.10;83.30;;;;;;4966760;28;20042;-71
2022/08/30 12:57:02;;;;;;;1.50;0.20;;;23.10;83.50;;;;;;4967346;28;20030;-71
2022/08/30 12:59:40;;;;;;;1.55;0.32;;;23.10;83.40;;;;;;4967194;28;20043;-71
2022/08/30 13:02:16;;;;;;;4.25;0.20;;;23.10;83.80;;;;;;4966010;28;20479;-71
2022/08/30 13:04:42;;;;;;;4.32;0.40;;;23.10;83.60;;;;;;4966867;28;20039;-71
2022/08/30 13:07:07;;;;;;;4.20;0.50;;;23.10;84.20;;;;;;4966268;28;20057;-71